createdAt,value
2018-12-10T00:00:13.311Z,9.33
2018-12-10T00:02:39.790Z,8.20
2018-12-10T00:05:07.429Z,15.20
2018-12-10T00:07:34.152Z,9.97
2018-12-10T00:10:02.597Z,15.63
2018-12-10T00:12:29.574Z,13.70
2018-12-10T00:14:56.134Z,12.00
2018-12-10T00:17:22.734Z,9.87
2018-12-10T00:19:49.352Z,8.27
2018-12-10T00:22:15.919Z,12.60
2018-12-10T00:24:42.452Z,8.10
2018-12-10T00:27:08.974Z,10.83
2018-12-10T00:29:35.935Z,15.40
2018-12-10T00:32:02.647Z,12.97
2018-12-10T00:34:29.106Z,10.20
2018-12-10T00:36:55.711Z,15.47
2018-12-10T00:39:24.817Z,10.47
2018-12-10T00:41:51.410Z,6.90
2018-12-10T00:44:18.682Z,6.80
2018-12-10T00:46:45.370Z,7.50
2018-12-10T00:49:12.066Z,9.33
2018-12-10T00:51:38.825Z,8.10
2018-12-10T00:54:05.418Z,9.70
2018-12-10T00:56:31.990Z,8.80
2018-12-10T00:58:58.594Z,10.67
2018-12-10T01:01:25.298Z,10.57
2018-12-10T01:03:52.604Z,10.33
2018-12-10T01:06:19.260Z,10.10
2018-12-10T01:08:45.758Z,12.40
2018-12-10T01:11:13.031Z,9.77
2018-12-10T01:13:39.544Z,7.33
2018-12-10T01:16:06.842Z,9.40
2018-12-10T01:18:33.350Z,10.93
2018-12-10T01:20:59.729Z,11.70
2018-12-10T01:23:26.215Z,9.50
2018-12-10T01:25:52.883Z,6.00
2018-12-10T01:28:19.383Z,12.10
2018-12-10T01:30:45.979Z,5.50
2018-12-10T01:33:12.567Z,9.70
2018-12-10T01:35:39.250Z,11.53
2018-12-10T01:38:06.043Z,12.23
2018-12-10T01:40:32.732Z,5.00
2018-12-10T01:43:00.227Z,8.57
2018-12-10T01:45:29.078Z,9.60
2018-12-10T01:47:55.667Z,9.87
2018-12-10T01:50:22.941Z,7.17
2018-12-10T01:52:49.426Z,10.20
2018-12-10T01:55:16.037Z,8.93
2018-12-10T01:57:43.646Z,7.10
2018-12-10T02:00:11.137Z,9.10
2018-12-10T02:02:37.626Z,9.67
2018-12-10T02:05:05.009Z,3.80
2018-12-10T02:07:32.206Z,10.60
2018-12-10T02:09:59.486Z,7.10
2018-12-10T02:12:30.621Z,5.47
2018-12-10T02:14:57.191Z,9.47
2018-12-10T02:17:24.485Z,5.77
2018-12-10T02:19:51.951Z,7.57
2018-12-10T02:22:18.528Z,6.70
2018-12-10T02:24:45.095Z,6.70
2018-12-10T02:27:11.789Z,5.13
2018-12-10T02:29:38.442Z,12.57
2018-12-10T02:32:05.136Z,5.17
2018-12-10T02:34:31.728Z,8.70
2018-12-10T02:36:58.315Z,6.10
2018-12-10T02:39:24.939Z,5.70
2018-12-10T02:41:52.199Z,7.33
2018-12-10T02:44:20.402Z,10.47
2018-12-10T02:46:47.897Z,7.80
2018-12-10T02:49:14.677Z,8.97
2018-12-10T02:51:41.647Z,10.10
2018-12-10T02:54:08.359Z,9.97
2018-12-10T02:56:35.453Z,6.53
2018-12-10T02:59:02.296Z,6.30
2018-12-10T03:01:28.959Z,8.33
2018-12-10T03:03:56.249Z,6.40
2018-12-10T03:06:23.043Z,13.13
2018-12-10T03:08:49.691Z,10.20
2018-12-10T03:11:16.276Z,8.97
2018-12-10T03:13:42.869Z,7.50
2018-12-10T03:16:09.441Z,9.60
2018-12-10T03:18:37.041Z,7.07
2018-12-10T03:21:04.115Z,4.80
2018-12-10T03:23:30.709Z,6.93
2018-12-10T03:25:57.875Z,5.30
2018-12-10T03:28:24.462Z,5.53
2018-12-10T03:30:51.092Z,3.27
2018-12-10T03:33:17.889Z,6.03
2018-12-10T03:35:44.753Z,3.83
2018-12-10T03:38:11.350Z,4.40
2018-12-10T03:40:39.511Z,6.63
2018-12-10T03:43:07.341Z,8.50
2018-12-10T03:45:33.935Z,5.77
2018-12-10T03:48:00.534Z,5.90
2018-12-10T03:50:27.197Z,3.87
2018-12-10T03:52:54.010Z,11.33
2018-12-10T03:55:20.670Z,6.90
2018-12-10T03:57:48.878Z,7.20
2018-12-10T04:00:15.599Z,7.07
2018-12-10T04:05:37.037Z,5.57
2018-12-10T04:08:03.744Z,13.03
2018-12-10T04:10:31.299Z,9.80
2018-12-10T04:12:57.890Z,7.47
2018-12-10T04:15:24.531Z,6.30
2018-12-10T04:17:51.037Z,7.27
2018-12-10T04:20:17.846Z,9.20
2018-12-10T04:22:44.847Z,9.97
2018-12-10T04:25:11.414Z,8.23
2018-12-10T04:27:38.059Z,10.00
2018-12-10T04:30:04.921Z,13.17
2018-12-10T04:32:31.518Z,12.37
2018-12-10T04:34:58.282Z,8.33
2018-12-10T04:37:24.879Z,11.43
2018-12-10T04:39:51.443Z,10.17
2018-12-10T04:42:18.121Z,6.43
2018-12-10T04:44:44.690Z,8.60
2018-12-10T04:47:12.277Z,15.43
2018-12-10T04:49:38.854Z,15.00
2018-12-10T04:52:06.256Z,7.63
2018-12-10T04:54:32.831Z,13.37
2018-12-10T04:57:01.103Z,12.00
2018-12-10T04:59:27.798Z,12.77
2018-12-10T05:01:55.184Z,7.87
2018-12-10T05:04:23.886Z,7.97
2018-12-10T05:06:51.454Z,11.10
2018-12-10T05:09:19.079Z,6.93
2018-12-10T05:11:45.642Z,8.07
2018-12-10T05:14:12.231Z,12.87
2018-12-10T05:16:39.395Z,19.50
2018-12-10T05:19:06.692Z,10.20
2018-12-10T05:21:33.244Z,8.57
2018-12-10T05:24:00.783Z,9.63
2018-12-10T05:26:28.050Z,7.97
2018-12-10T05:28:56.253Z,10.73
2018-12-10T05:31:22.711Z,7.70
2018-12-10T05:33:50.892Z,13.80
2018-12-10T05:36:17.357Z,10.60
2018-12-10T05:38:44.164Z,8.67
2018-12-10T05:41:10.747Z,13.20
2018-12-10T05:43:37.466Z,9.80
2018-12-10T05:46:04.948Z,7.00
2018-12-10T05:48:31.657Z,7.40
2018-12-10T05:50:58.221Z,8.10
2018-12-10T05:53:24.942Z,11.40
2018-12-10T05:55:51.493Z,8.70
2018-12-10T05:58:19.213Z,6.10
2018-12-10T06:00:45.779Z,9.93
2018-12-10T06:03:12.494Z,10.13
2018-12-10T06:05:39.070Z,13.27
2018-12-10T06:08:06.748Z,9.60
2018-12-10T06:10:34.988Z,7.20
2018-12-10T06:13:01.548Z,14.97
2018-12-10T06:15:28.158Z,10.23
2018-12-10T06:17:54.732Z,11.20
2018-12-10T06:20:21.230Z,11.93
2018-12-10T06:22:47.713Z,14.70
2018-12-10T06:25:14.231Z,12.50
2018-12-10T06:27:40.932Z,10.47
2018-12-10T06:30:07.534Z,10.77
2018-12-10T06:32:34.019Z,11.60
2018-12-10T06:35:00.637Z,10.33
2018-12-10T06:37:27.104Z,10.40
2018-12-10T06:39:53.729Z,9.40
2018-12-10T06:42:20.210Z,11.37
2018-12-10T06:44:46.624Z,10.40
2018-12-10T06:47:13.203Z,8.97
2018-12-10T06:49:39.740Z,11.63
2018-12-10T06:52:06.194Z,9.97
2018-12-10T06:54:32.681Z,7.73
2018-12-10T06:56:59.154Z,11.50
2018-12-10T06:59:25.669Z,7.30
2018-12-10T07:01:52.286Z,10.10
2018-12-10T07:04:18.739Z,11.60
2018-12-10T07:06:45.235Z,12.50
2018-12-10T07:09:11.769Z,7.17
2018-12-10T07:11:38.279Z,11.20
2018-12-10T07:14:05.240Z,9.83
2018-12-10T07:16:31.904Z,11.03
2018-12-10T07:18:58.784Z,14.60
2018-12-10T07:21:25.319Z,9.87
2018-12-10T07:23:51.795Z,20.83
2018-12-10T07:26:18.393Z,13.50
2018-12-10T07:28:44.939Z,5.20
2018-12-10T07:31:11.427Z,10.60
2018-12-10T07:33:37.913Z,6.73
2018-12-10T07:36:04.306Z,14.83
2018-12-10T07:38:30.768Z,14.37
2018-12-10T07:40:57.285Z,9.40
2018-12-10T07:43:23.743Z,12.07
2018-12-10T07:45:50.218Z,9.50
2018-12-10T07:48:16.614Z,17.17
2018-12-10T07:50:43.100Z,9.60
2018-12-10T07:53:09.590Z,12.53
2018-12-10T07:55:36.060Z,8.27
2018-12-10T07:58:02.571Z,12.47
2018-12-10T08:00:29.111Z,12.00
2018-12-10T08:02:55.606Z,11.73
2018-12-10T08:05:22.079Z,12.60
2018-12-10T08:07:48.586Z,8.33
2018-12-10T08:10:15.450Z,13.17
2018-12-10T08:12:42.157Z,15.47
2018-12-10T08:15:08.963Z,14.47
2018-12-10T08:17:36.269Z,12.63
2018-12-10T08:20:03.469Z,10.57
2018-12-10T08:22:30.076Z,14.97
2018-12-10T08:24:56.542Z,10.70
2018-12-10T08:27:23.047Z,11.53
2018-12-10T08:29:49.531Z,10.50
2018-12-10T08:32:16.224Z,9.60
2018-12-10T08:34:42.933Z,8.40
2018-12-10T08:37:09.499Z,16.60
2018-12-10T08:39:36.106Z,14.73
2018-12-10T08:42:02.982Z,8.47
2018-12-10T08:44:29.586Z,8.10
2018-12-10T08:46:56.058Z,9.57
2018-12-10T08:49:22.579Z,10.57
2018-12-10T08:51:49.261Z,7.40
2018-12-10T08:54:15.766Z,9.87
2018-12-10T08:56:42.237Z,11.20
2018-12-10T08:59:08.828Z,7.97
2018-12-10T09:01:35.502Z,8.10
2018-12-10T09:04:02.150Z,8.47
2018-12-10T09:06:28.715Z,8.10
2018-12-10T09:08:56.117Z,10.30
2018-12-10T09:11:22.790Z,11.80
2018-12-10T09:13:49.434Z,7.07
2018-12-10T09:16:15.882Z,9.30
2018-12-10T09:18:42.695Z,10.40
2018-12-10T09:21:09.158Z,13.57
2018-12-10T09:23:35.886Z,9.10
2018-12-10T09:26:02.470Z,7.27
2018-12-10T09:28:28.975Z,8.87
2018-12-10T09:30:55.541Z,9.33
2018-12-10T09:33:22.015Z,10.80
2018-12-10T09:35:48.647Z,10.53
2018-12-10T09:38:15.114Z,9.23
2018-12-10T09:40:41.872Z,6.17
2018-12-10T09:43:08.338Z,8.13
2018-12-10T09:45:34.843Z,5.73
2018-12-10T09:48:01.303Z,9.17
2018-12-10T09:50:27.911Z,10.10
2018-12-10T09:52:54.394Z,5.20
2018-12-10T09:55:20.878Z,8.70
2018-12-10T09:57:47.446Z,7.73
2018-12-10T10:00:14.054Z,6.97
2018-12-10T10:02:40.630Z,6.53
2018-12-10T10:05:07.346Z,8.97
2018-12-10T10:07:33.871Z,7.80
2018-12-10T10:10:00.386Z,6.13
2018-12-10T10:12:27.090Z,5.87
2018-12-10T10:14:53.873Z,5.00
2018-12-10T10:17:20.602Z,7.70
2018-12-10T10:19:47.105Z,8.00
2018-12-10T10:22:13.573Z,6.37
2018-12-10T10:24:40.167Z,5.00
2018-12-10T10:27:06.640Z,5.47
2018-12-10T10:29:33.250Z,6.13
2018-12-10T10:31:59.607Z,2.27
2018-12-10T10:34:26.104Z,4.10
2018-12-10T10:36:52.577Z,4.37
2018-12-10T10:39:19.211Z,6.50
2018-12-10T10:41:45.787Z,2.10
2018-12-10T10:44:12.289Z,4.80
2018-12-10T10:46:38.877Z,5.43
2018-12-10T10:49:05.353Z,6.50
2018-12-10T10:51:31.861Z,5.63
2018-12-10T10:53:58.327Z,6.97
2018-12-10T10:56:24.932Z,4.07
2018-12-10T10:58:51.496Z,2.90
2018-12-10T11:01:22.485Z,8.03
2018-12-10T11:03:49.161Z,3.10
2018-12-10T11:06:15.902Z,3.63
2018-12-10T11:08:42.399Z,4.37
2018-12-10T11:11:08.894Z,7.87
2018-12-10T11:13:35.368Z,6.03
2018-12-10T11:16:01.875Z,8.47
2018-12-10T11:18:28.511Z,3.47
2018-12-10T11:20:55.105Z,4.00
2018-12-10T11:23:21.634Z,2.70
2018-12-10T11:25:48.102Z,4.10
2018-12-10T11:28:14.755Z,2.23
2018-12-10T11:30:41.548Z,5.90
2018-12-10T11:33:08.016Z,4.60
2018-12-10T11:35:34.748Z,4.70
2018-12-10T11:38:01.234Z,4.27
2018-12-10T11:40:27.766Z,3.80
2018-12-10T11:42:54.273Z,3.53
2018-12-10T11:45:20.725Z,4.13
2018-12-10T11:47:47.341Z,5.27
2018-12-10T11:50:14.040Z,5.57
2018-12-10T11:52:40.799Z,4.53
2018-12-10T11:55:07.546Z,6.77
2018-12-10T11:57:34.515Z,6.23
2018-12-10T12:00:01.005Z,3.77
2018-12-10T12:02:29.865Z,7.27
2018-12-10T12:04:56.147Z,5.33
2018-12-10T12:07:22.770Z,4.77
2018-12-10T12:09:50.342Z,5.10
2018-12-10T12:12:17.090Z,6.10
2018-12-10T12:14:43.866Z,6.10
2018-12-10T12:17:10.481Z,5.17
2018-12-10T12:19:36.864Z,4.80
2018-12-10T12:22:05.109Z,8.37
2018-12-10T12:24:32.013Z,3.27
2018-12-10T12:26:58.731Z,5.77
2018-12-10T12:29:25.342Z,5.30
2018-12-10T12:31:51.924Z,7.67
2018-12-10T12:34:18.534Z,8.60
2018-12-10T12:36:45.715Z,5.93
2018-12-10T12:39:12.339Z,3.93
2018-12-10T12:41:39.216Z,7.87
2018-12-10T12:44:05.809Z,7.37
2018-12-10T12:46:32.314Z,8.13
2018-12-10T12:48:59.291Z,9.50
2018-12-10T12:51:26.112Z,7.30
2018-12-10T12:53:52.642Z,6.70
2018-12-10T12:56:19.166Z,7.43
2018-12-10T12:58:45.643Z,9.03
2018-12-10T13:01:12.300Z,8.50
2018-12-10T13:03:38.850Z,5.97
2018-12-10T13:06:06.993Z,7.20
2018-12-10T13:08:34.159Z,6.37
2018-12-10T13:11:01.960Z,10.60
2018-12-10T13:13:28.459Z,6.30
2018-12-10T13:15:55.757Z,6.70
2018-12-10T13:18:22.523Z,8.87
2018-12-10T13:20:49.147Z,4.70
2018-12-10T13:23:15.625Z,4.20
2018-12-10T13:25:42.116Z,8.30
2018-12-10T13:28:08.726Z,5.40
2018-12-10T13:30:35.445Z,7.00
2018-12-10T13:33:02.382Z,5.17
2018-12-10T13:35:29.118Z,4.50
2018-12-10T13:37:57.269Z,11.37
2018-12-10T13:40:23.887Z,7.70
2018-12-10T13:42:50.469Z,4.97
2018-12-10T13:45:17.005Z,4.30
2018-12-10T13:47:43.639Z,5.00
2018-12-10T13:50:10.453Z,4.47
2018-12-10T13:52:36.834Z,5.60
2018-12-10T13:55:04.094Z,5.33
2018-12-10T13:57:30.656Z,4.13
2018-12-10T13:59:57.283Z,2.53
2018-12-10T14:02:23.978Z,3.23
2018-12-10T14:04:51.983Z,3.60
2018-12-10T14:07:18.634Z,5.00
2018-12-10T14:09:45.329Z,2.37
2018-12-10T14:12:12.469Z,6.00
2018-12-10T14:14:38.925Z,4.10
2018-12-10T14:17:05.467Z,2.23
2018-12-10T14:19:32.016Z,2.20
2018-12-10T14:21:58.760Z,2.97
2018-12-10T14:24:25.289Z,3.43
2018-12-10T14:26:52.257Z,2.77
2018-12-10T14:29:19.836Z,3.43
2018-12-10T14:31:46.585Z,4.07
2018-12-10T14:34:21.024Z,6.43
2018-12-10T14:36:47.907Z,3.47
2018-12-10T14:39:14.873Z,3.30
2018-12-10T14:41:41.605Z,7.20
2018-12-10T14:44:08.289Z,3.97
2018-12-10T14:46:34.896Z,2.67
2018-12-10T14:49:01.430Z,5.30
2018-12-10T14:51:28.046Z,3.03
2018-12-10T14:53:54.664Z,4.80
2018-12-10T14:56:21.277Z,5.23
2018-12-10T14:58:47.811Z,4.50
2018-12-10T15:01:14.395Z,3.03
2018-12-10T15:03:41.002Z,2.33
2018-12-10T15:06:07.604Z,4.43
2018-12-10T15:08:34.316Z,5.30
2018-12-10T15:11:00.925Z,1.93
2018-12-10T15:13:27.425Z,3.10
2018-12-10T15:15:53.893Z,6.53
2018-12-10T15:18:20.402Z,5.30
2018-12-10T15:20:47.984Z,5.10
2018-12-10T15:23:14.658Z,4.57
2018-12-10T15:25:41.271Z,6.90
2018-12-10T15:28:08.004Z,3.43
2018-12-10T15:30:34.687Z,6.87
2018-12-10T15:33:01.425Z,5.27
2018-12-10T15:35:29.634Z,7.27
2018-12-10T15:37:56.347Z,5.00
2018-12-10T15:40:23.835Z,6.63
2018-12-10T15:42:50.437Z,11.90
2018-12-10T15:45:17.414Z,5.70
2018-12-10T15:47:44.846Z,7.20
2018-12-10T15:50:11.682Z,6.07
2018-12-10T15:52:39.141Z,5.60
2018-12-10T15:55:05.933Z,7.43
2018-12-10T15:57:33.266Z,5.93
2018-12-10T16:00:00.142Z,8.27
2018-12-10T16:02:26.771Z,11.07
2018-12-10T16:04:53.338Z,9.63
2018-12-10T16:07:20.150Z,8.07
2018-12-10T16:09:46.526Z,7.83
2018-12-10T16:12:13.118Z,6.30
2018-12-10T16:14:39.629Z,11.23
2018-12-10T16:17:06.235Z,7.77
2018-12-10T16:19:33.983Z,7.37
2018-12-10T16:22:00.765Z,16.07
2018-12-10T16:24:27.378Z,8.37
2018-12-10T16:26:53.844Z,5.60
2018-12-10T16:29:21.883Z,11.30
2018-12-10T16:31:48.600Z,7.93
2018-12-10T16:34:15.205Z,8.80
2018-12-10T16:36:42.775Z,8.60
2018-12-10T16:39:09.570Z,7.73
2018-12-10T16:41:36.281Z,6.23
2018-12-10T16:44:03.197Z,7.60
2018-12-10T16:46:29.711Z,5.27
2018-12-10T16:48:56.962Z,7.40
2018-12-10T16:51:23.531Z,8.53
2018-12-10T16:53:50.134Z,7.17
2018-12-10T16:56:16.747Z,7.90
2018-12-10T16:58:43.305Z,6.07
2018-12-10T17:01:09.911Z,5.80
2018-12-10T17:03:36.630Z,8.07
2018-12-10T17:06:03.978Z,9.00
2018-12-10T17:08:30.653Z,4.70
2018-12-10T17:10:57.354Z,11.10
2018-12-10T17:13:24.722Z,8.23
2018-12-10T17:15:51.786Z,4.90
2018-12-10T17:18:20.023Z,5.73
2018-12-10T17:20:47.015Z,4.90
2018-12-10T17:23:14.543Z,9.70
2018-12-10T17:25:41.129Z,9.93
2018-12-10T17:28:08.542Z,9.00
2018-12-10T17:30:35.230Z,6.10
2018-12-10T17:33:01.842Z,7.97
2018-12-10T17:35:28.452Z,7.57
2018-12-10T17:37:54.922Z,8.67
2018-12-10T17:40:21.644Z,4.70
2018-12-10T17:42:48.189Z,6.53
2018-12-10T17:45:14.856Z,7.60
2018-12-10T17:47:41.423Z,10.33
2018-12-10T17:50:10.202Z,6.93
2018-12-10T17:52:36.914Z,7.67
2018-12-10T17:55:06.047Z,11.13
2018-12-10T17:57:32.622Z,11.07
2018-12-10T17:59:59.947Z,13.53
2018-12-10T18:02:27.718Z,7.20
2018-12-10T18:04:55.333Z,7.37
2018-12-10T18:07:22.378Z,9.47
2018-12-10T18:09:48.829Z,8.50
2018-12-10T18:12:15.458Z,10.63
2018-12-10T18:14:41.963Z,12.13
2018-12-10T18:17:08.489Z,9.93
2018-12-10T18:19:35.055Z,8.90
2018-12-10T18:22:01.562Z,13.37
2018-12-10T18:24:28.067Z,11.77
2018-12-10T18:26:54.708Z,8.50
2018-12-10T18:29:21.173Z,11.20
2018-12-10T18:31:47.932Z,10.63
2018-12-10T18:34:14.485Z,10.30
2018-12-10T18:36:40.959Z,16.17
2018-12-10T18:39:07.838Z,18.77
2018-12-10T18:41:34.622Z,9.03
2018-12-10T18:44:01.206Z,14.33
2018-12-10T18:46:27.836Z,12.50
2018-12-10T18:48:54.445Z,8.80
2018-12-10T18:51:20.914Z,8.27
2018-12-10T18:53:47.508Z,10.53
2018-12-10T18:56:14.038Z,11.93
2018-12-10T18:58:40.494Z,8.90
2018-12-10T19:01:06.991Z,7.10
2018-12-10T19:03:33.666Z,16.27
2018-12-10T19:08:33.516Z,11.37
2018-12-10T19:10:59.990Z,10.20
2018-12-10T19:13:26.506Z,11.43
2018-12-10T19:15:53.399Z,12.53
2018-12-10T19:18:19.986Z,9.27
2018-12-10T19:20:46.465Z,10.17
2018-12-10T19:23:13.065Z,14.67
2018-12-10T19:25:39.793Z,12.03
2018-12-10T19:28:06.476Z,14.63
2018-12-10T19:30:33.750Z,18.57
2018-12-10T19:33:00.368Z,11.03
2018-12-10T19:35:26.850Z,12.97
2018-12-10T19:37:53.484Z,12.83
2018-12-10T19:40:20.093Z,13.35
2018-12-10T19:42:46.565Z,13.07
2018-12-10T19:45:13.154Z,13.30
2018-12-10T19:47:39.762Z,8.47
2018-12-10T19:50:06.592Z,14.90
2018-12-10T19:52:33.281Z,8.63
2018-12-10T19:54:59.956Z,13.17
2018-12-10T19:57:26.664Z,14.80
2018-12-10T19:59:53.141Z,12.27
2018-12-10T20:02:20.214Z,18.07
2018-12-10T20:04:46.882Z,14.50
2018-12-10T20:07:13.434Z,14.23
2018-12-10T20:09:40.008Z,9.70
2018-12-10T20:12:06.542Z,13.77
2018-12-10T20:14:33.006Z,10.07
2018-12-10T20:16:59.648Z,15.53
2018-12-10T20:19:26.200Z,13.70
2018-12-10T20:21:52.718Z,15.47
2018-12-10T20:24:19.513Z,15.90
2018-12-10T20:26:46.240Z,13.50
2018-12-10T20:29:12.828Z,10.10
2018-12-10T20:31:39.373Z,19.63
2018-12-10T20:34:05.971Z,10.83
2018-12-10T20:36:32.480Z,11.00
2018-12-10T20:38:59.144Z,15.03
2018-12-10T20:41:25.679Z,15.00
2018-12-10T20:43:52.146Z,19.50
2018-12-10T20:46:18.759Z,11.47
2018-12-10T20:48:45.326Z,15.63
2018-12-10T20:51:11.977Z,14.00
2018-12-10T20:53:38.590Z,13.07
2018-12-10T20:56:05.268Z,15.83
2018-12-10T20:58:31.837Z,21.63
2018-12-10T21:00:58.391Z,18.23
2018-12-10T21:03:24.917Z,14.67
2018-12-10T21:05:57.512Z,12.90
2018-12-10T21:08:24.266Z,13.60
2018-12-10T21:10:51.066Z,9.90
2018-12-10T21:13:17.785Z,17.83
2018-12-10T21:15:44.691Z,11.47
2018-12-10T21:18:11.300Z,12.13
2018-12-10T21:20:38.617Z,12.57
2018-12-10T21:23:05.231Z,15.10
2018-12-10T21:25:31.758Z,16.07
2018-12-10T21:27:58.223Z,14.47
2018-12-10T21:30:24.807Z,15.17
2018-12-10T21:32:51.357Z,14.90
2018-12-10T21:35:17.866Z,13.63
2018-12-10T21:37:44.298Z,13.37
2018-12-10T21:40:10.954Z,12.77
2018-12-10T21:42:38.970Z,13.10
2018-12-10T21:45:06.414Z,11.50
2018-12-10T21:47:33.533Z,17.27
2018-12-10T21:50:00.122Z,11.93
2018-12-10T21:52:28.298Z,15.63
2018-12-10T21:54:54.962Z,14.93
2018-12-10T21:57:21.562Z,15.07
2018-12-10T21:59:48.927Z,12.13
2018-12-10T22:02:15.666Z,12.70
2018-12-10T22:04:42.502Z,14.20
2018-12-10T22:07:09.321Z,15.80
2018-12-10T22:09:35.781Z,12.33
2018-12-10T22:12:02.619Z,15.03
2018-12-10T22:14:30.289Z,14.60
2018-12-10T22:16:57.104Z,14.20
2018-12-10T22:19:23.594Z,10.77
2018-12-10T22:21:50.179Z,14.63
2018-12-10T22:24:16.685Z,9.90
2018-12-10T22:26:43.215Z,15.63
2018-12-10T22:29:10.137Z,21.80
2018-12-10T22:31:36.541Z,13.50
2018-12-10T22:34:03.244Z,14.83
2018-12-10T22:36:29.852Z,16.37
2018-12-10T22:38:56.536Z,11.53
2018-12-10T22:41:23.201Z,15.20
2018-12-10T22:43:49.833Z,10.73
2018-12-10T22:46:16.541Z,12.10
2018-12-10T22:48:43.399Z,14.77
2018-12-10T22:51:09.878Z,14.10
2018-12-10T22:53:36.638Z,16.10
2018-12-10T22:56:04.147Z,16.60
2018-12-10T22:58:30.835Z,19.43
2018-12-10T23:00:57.657Z,14.00
2018-12-10T23:03:24.130Z,12.80
2018-12-10T23:05:50.638Z,18.67
2018-12-10T23:08:17.389Z,16.40
2018-12-10T23:10:43.915Z,15.53
2018-12-10T23:13:10.420Z,12.80
2018-12-10T23:15:36.843Z,19.73
2018-12-10T23:18:03.422Z,18.97
2018-12-10T23:20:29.933Z,15.90
2018-12-10T23:22:56.418Z,14.50
2018-12-10T23:25:23.028Z,17.57
2018-12-10T23:27:49.502Z,17.40
2018-12-10T23:30:16.119Z,11.17
2018-12-10T23:32:42.591Z,17.33
2018-12-10T23:35:09.125Z,13.63
2018-12-10T23:37:35.715Z,16.33
2018-12-10T23:40:02.946Z,14.63
2018-12-10T23:42:29.436Z,16.10
2018-12-10T23:44:56.229Z,14.23
2018-12-10T23:47:22.891Z,19.83
2018-12-10T23:49:49.494Z,16.57
2018-12-10T23:52:16.207Z,12.67
2018-12-10T23:54:42.693Z,13.87
2018-12-10T23:57:09.153Z,12.33
2018-12-10T23:59:35.748Z,15.03
